sensor_id;sensor_type;location;lat;lon;timestamp;P1;durP1;ratioP1;P2;durP2;ratioP2
53391;SDS011;41667;51.922;8.850;2022-12-18T00:00:28;36.90;;;17.20;;
53391;SDS011;41667;51.922;8.850;2022-12-18T00:02:55;28.42;;;17.92;;
53391;SDS011;41667;51.922;8.850;2022-12-18T00:05:20;28.17;;;14.82;;
53391;SDS011;41667;51.922;8.850;2022-12-18T00:07:45;22.83;;;15.57;;
53391;SDS011;41667;51.922;8.850;2022-12-18T00:10:10;34.13;;;16.73;;
53391;SDS011;41667;51.922;8.850;2022-12-18T00:12:36;25.37;;;17.27;;
53391;SDS011;41667;51.922;8.850;2022-12-18T00:15:01;29.83;;;16.67;;
53391;SDS011;41667;51.922;8.850;2022-12-18T00:17:26;21.43;;;12.30;;
53391;SDS011;41667;51.922;8.850;2022-12-18T00:19:51;32.63;;;18.33;;
53391;SDS011;41667;51.922;8.850;2022-12-18T00:22:16;28.73;;;15.20;;
53391;SDS011;41667;51.922;8.850;2022-12-18T00:24:41;29.70;;;17.07;;
53391;SDS011;41667;51.922;8.850;2022-12-18T00:27:07;28.33;;;17.53;;
53391;SDS011;41667;51.922;8.850;2022-12-18T00:29:32;28.33;;;16.80;;
53391;SDS011;41667;51.922;8.850;2022-12-18T00:31:57;26.02;;;15.30;;
53391;SDS011;41667;51.922;8.850;2022-12-18T00:34:22;24.13;;;14.55;;
53391;SDS011;41667;51.922;8.850;2022-12-18T00:36:47;32.42;;;17.13;;
53391;SDS011;41667;51.922;8.850;2022-12-18T00:39:13;27.10;;;16.23;;
53391;SDS011;41667;51.922;8.850;2022-12-18T00:41:38;24.80;;;15.80;;
53391;SDS011;41667;51.922;8.850;2022-12-18T00:44:22;32.13;;;14.10;;
53391;SDS011;41667;51.922;8.850;2022-12-18T00:46:47;28.27;;;16.87;;
53391;SDS011;41667;51.922;8.850;2022-12-18T00:49:12;31.27;;;16.33;;
53391;SDS011;41667;51.922;8.850;2022-12-18T00:51:38;31.95;;;16.05;;
53391;SDS011;41667;51.922;8.850;2022-12-18T00:54:03;26.85;;;15.75;;
53391;SDS011;41667;51.922;8.850;2022-12-18T00:56:29;18.30;;;12.52;;
53391;SDS011;41667;51.922;8.850;2022-12-18T00:58:54;29.25;;;16.30;;
53391;SDS011;41667;51.922;8.850;2022-12-18T01:01:19;29.90;;;14.13;;
53391;SDS011;41667;51.922;8.850;2022-12-18T01:03:44;25.30;;;14.10;;
53391;SDS011;41667;51.922;8.850;2022-12-18T01:06:11;22.25;;;14.20;;
53391;SDS011;41667;51.922;8.850;2022-12-18T01:08:37;23.05;;;12.98;;
53391;SDS011;41667;51.922;8.850;2022-12-18T01:11:36;30.00;;;14.48;;
53391;SDS011;41667;51.922;8.850;2022-12-18T01:13:54;24.02;;;15.48;;
53391;SDS011;41667;51.922;8.850;2022-12-18T01:16:21;26.55;;;14.95;;
53391;SDS011;41667;51.922;8.850;2022-12-18T01:18:47;28.52;;;15.88;;
53391;SDS011;41667;51.922;8.850;2022-12-18T01:21:14;23.85;;;13.00;;
53391;SDS011;41667;51.922;8.850;2022-12-18T01:23:39;23.67;;;14.68;;
53391;SDS011;41667;51.922;8.850;2022-12-18T01:26:08;22.67;;;13.25;;
53391;SDS011;41667;51.922;8.850;2022-12-18T01:28:34;28.10;;;13.95;;
53391;SDS011;41667;51.922;8.850;2022-12-18T01:31:13;21.38;;;12.45;;
53391;SDS011;41667;51.922;8.850;2022-12-18T01:33:38;22.20;;;12.63;;
53391;SDS011;41667;51.922;8.850;2022-12-18T01:36:03;29.42;;;13.40;;
53391;SDS011;41667;51.922;8.850;2022-12-18T01:38:29;33.55;;;11.35;;
53391;SDS011;41667;51.922;8.850;2022-12-18T01:40:57;22.23;;;10.63;;
53391;SDS011;41667;51.922;8.850;2022-12-18T01:43:39;19.80;;;9.77;;
53391;SDS011;41667;51.922;8.850;2022-12-18T01:46:05;20.15;;;10.65;;
53391;SDS011;41667;51.922;8.850;2022-12-18T01:48:30;17.10;;;12.80;;
53391;SDS011;41667;51.922;8.850;2022-12-18T01:50:55;12.82;;;9.45;;
53391;SDS011;41667;51.922;8.850;2022-12-18T01:53:21;16.17;;;11.17;;
53391;SDS011;41667;51.922;8.850;2022-12-18T01:55:50;14.40;;;9.55;;
53391;SDS011;41667;51.922;8.850;2022-12-18T01:58:16;28.75;;;14.82;;
53391;SDS011;41667;51.922;8.850;2022-12-18T02:00:41;11.30;;;6.65;;
53391;SDS011;41667;51.922;8.850;2022-12-18T02:03:07;24.00;;;13.75;;
53391;SDS011;41667;51.922;8.850;2022-12-18T02:05:49;24.30;;;12.05;;
53391;SDS011;41667;51.922;8.850;2022-12-18T02:08:20;17.17;;;11.02;;
53391;SDS011;41667;51.922;8.850;2022-12-18T02:13:51;25.80;;;11.35;;
53391;SDS011;41667;51.922;8.850;2022-12-18T02:16:21;12.20;;;9.55;;
53391;SDS011;41667;51.922;8.850;2022-12-18T02:18:49;17.10;;;11.82;;
53391;SDS011;41667;51.922;8.850;2022-12-18T02:21:20;17.20;;;11.23;;
53391;SDS011;41667;51.922;8.850;2022-12-18T02:23:56;21.52;;;10.32;;
53391;SDS011;41667;51.922;8.850;2022-12-18T02:26:37;22.52;;;12.15;;
53391;SDS011;41667;51.922;8.850;2022-12-18T02:29:16;26.05;;;15.50;;
53391;SDS011;41667;51.922;8.850;2022-12-18T02:31:43;24.75;;;12.95;;
53391;SDS011;41667;51.922;8.850;2022-12-18T02:34:10;22.95;;;13.38;;
53391;SDS011;41667;51.922;8.850;2022-12-18T02:36:38;26.92;;;14.23;;
53391;SDS011;41667;51.922;8.850;2022-12-18T02:39:04;30.80;;;14.80;;
53391;SDS011;41667;51.922;8.850;2022-12-18T02:41:30;27.38;;;14.43;;
53391;SDS011;41667;51.922;8.850;2022-12-18T02:43:57;27.20;;;16.17;;
53391;SDS011;41667;51.922;8.850;2022-12-18T02:48:47;29.00;;;15.98;;
53391;SDS011;41667;51.922;8.850;2022-12-18T02:51:24;23.88;;;14.43;;
53391;SDS011;41667;51.922;8.850;2022-12-18T02:53:52;28.83;;;14.52;;
53391;SDS011;41667;51.922;8.850;2022-12-18T02:56:22;25.10;;;10.82;;
53391;SDS011;41667;51.922;8.850;2022-12-18T03:01:29;17.25;;;10.60;;
53391;SDS011;41667;51.922;8.850;2022-12-18T03:04:01;21.45;;;12.30;;
53391;SDS011;41667;51.922;8.850;2022-12-18T03:06:29;23.38;;;11.68;;
53391;SDS011;41667;51.922;8.850;2022-12-18T03:09:02;29.60;;;13.65;;
53391;SDS011;41667;51.922;8.850;2022-12-18T03:11:30;23.27;;;11.25;;
53391;SDS011;41667;51.922;8.850;2022-12-18T03:14:16;18.73;;;8.80;;
53391;SDS011;41667;51.922;8.850;2022-12-18T03:16:43;16.33;;;10.25;;
53391;SDS011;41667;51.922;8.850;2022-12-18T03:19:16;17.95;;;10.02;;
53391;SDS011;41667;51.922;8.850;2022-12-18T03:21:45;17.60;;;10.38;;
53391;SDS011;41667;51.922;8.850;2022-12-18T03:24:12;18.55;;;9.43;;
53391;SDS011;41667;51.922;8.850;2022-12-18T03:26:41;16.95;;;9.23;;
53391;SDS011;41667;51.922;8.850;2022-12-18T03:32:04;16.30;;;10.23;;
53391;SDS011;41667;51.922;8.850;2022-12-18T03:34:31;14.50;;;7.55;;
53391;SDS011;41667;51.922;8.850;2022-12-18T03:36:57;20.35;;;11.57;;
53391;SDS011;41667;51.922;8.850;2022-12-18T03:39:23;23.85;;;11.77;;
53391;SDS011;41667;51.922;8.850;2022-12-18T03:41:52;16.10;;;10.85;;
53391;SDS011;41667;51.922;8.850;2022-12-18T03:51:56;15.73;;;9.48;;
53391;SDS011;41667;51.922;8.850;2022-12-18T03:54:22;14.32;;;9.02;;
53391;SDS011;41667;51.922;8.850;2022-12-18T03:56:49;14.65;;;9.60;;
53391;SDS011;41667;51.922;8.850;2022-12-18T03:59:16;14.13;;;6.88;;
53391;SDS011;41667;51.922;8.850;2022-12-18T04:01:43;14.82;;;8.70;;
53391;SDS011;41667;51.922;8.850;2022-12-18T04:04:10;18.35;;;8.00;;
53391;SDS011;41667;51.922;8.850;2022-12-18T04:06:36;17.50;;;9.27;;
53391;SDS011;41667;51.922;8.850;2022-12-18T04:09:02;17.60;;;8.88;;
53391;SDS011;41667;51.922;8.850;2022-12-18T04:11:27;11.40;;;8.10;;
53391;SDS011;41667;51.922;8.850;2022-12-18T04:13:56;22.23;;;9.57;;
53391;SDS011;41667;51.922;8.850;2022-12-18T04:16:22;9.80;;;6.88;;
53391;SDS011;41667;51.922;8.850;2022-12-18T04:18:48;11.70;;;7.28;;
53391;SDS011;41667;51.922;8.850;2022-12-18T04:21:13;10.52;;;7.93;;
53391;SDS011;41667;51.922;8.850;2022-12-18T04:23:38;3.33;;;3.13;;
53391;SDS011;41667;51.922;8.850;2022-12-18T04:26:03;13.88;;;8.43;;
53391;SDS011;41667;51.922;8.850;2022-12-18T04:28:28;10.32;;;6.65;;
53391;SDS011;41667;51.922;8.850;2022-12-18T04:30:53;12.03;;;7.10;;
53391;SDS011;41667;51.922;8.850;2022-12-18T04:33:19;13.07;;;9.03;;
53391;SDS011;41667;51.922;8.850;2022-12-18T04:35:44;15.35;;;8.40;;
53391;SDS011;41667;51.922;8.850;2022-12-18T04:38:09;17.75;;;9.07;;
53391;SDS011;41667;51.922;8.850;2022-12-18T04:40:35;25.23;;;8.65;;
53391;SDS011;41667;51.922;8.850;2022-12-18T04:43:00;16.10;;;9.57;;
53391;SDS011;41667;51.922;8.850;2022-12-18T04:45:25;20.80;;;9.07;;
53391;SDS011;41667;51.922;8.850;2022-12-18T04:47:50;14.93;;;8.90;;
53391;SDS011;41667;51.922;8.850;2022-12-18T04:50:16;15.80;;;8.20;;
53391;SDS011;41667;51.922;8.850;2022-12-18T04:52:41;19.00;;;9.07;;
53391;SDS011;41667;51.922;8.850;2022-12-18T04:55:06;14.37;;;6.03;;
53391;SDS011;41667;51.922;8.850;2022-12-18T04:57:31;13.80;;;6.53;;
53391;SDS011;41667;51.922;8.850;2022-12-18T04:59:56;11.40;;;7.55;;
53391;SDS011;41667;51.922;8.850;2022-12-18T05:02:22;16.77;;;8.53;;
53391;SDS011;41667;51.922;8.850;2022-12-18T05:04:47;16.92;;;7.05;;
53391;SDS011;41667;51.922;8.850;2022-12-18T05:07:12;9.47;;;4.20;;
53391;SDS011;41667;51.922;8.850;2022-12-18T05:09:37;17.60;;;8.03;;
53391;SDS011;41667;51.922;8.850;2022-12-18T05:12:02;9.48;;;8.05;;
53391;SDS011;41667;51.922;8.850;2022-12-18T05:14:27;11.85;;;6.97;;
53391;SDS011;41667;51.922;8.850;2022-12-18T05:16:54;14.02;;;9.63;;
53391;SDS011;41667;51.922;8.850;2022-12-18T05:19:19;13.75;;;8.70;;
53391;SDS011;41667;51.922;8.850;2022-12-18T05:21:44;14.97;;;7.63;;
53391;SDS011;41667;51.922;8.850;2022-12-18T05:24:09;8.23;;;6.23;;
53391;SDS011;41667;51.922;8.850;2022-12-18T05:26:34;13.30;;;9.93;;
53391;SDS011;41667;51.922;8.850;2022-12-18T05:28:59;15.20;;;8.18;;
53391;SDS011;41667;51.922;8.850;2022-12-18T05:31:25;17.75;;;9.02;;
53391;SDS011;41667;51.922;8.850;2022-12-18T05:33:50;14.98;;;8.98;;
53391;SDS011;41667;51.922;8.850;2022-12-18T05:36:15;16.60;;;9.10;;
53391;SDS011;41667;51.922;8.850;2022-12-18T05:38:40;18.13;;;10.33;;
53391;SDS011;41667;51.922;8.850;2022-12-18T05:41:06;16.33;;;10.60;;
53391;SDS011;41667;51.922;8.850;2022-12-18T05:43:33;13.40;;;9.05;;
53391;SDS011;41667;51.922;8.850;2022-12-18T05:46:02;15.77;;;10.13;;
53391;SDS011;41667;51.922;8.850;2022-12-18T05:48:27;14.63;;;9.25;;
53391;SDS011;41667;51.922;8.850;2022-12-18T05:50:52;15.77;;;7.47;;
53391;SDS011;41667;51.922;8.850;2022-12-18T05:53:19;17.70;;;9.07;;
53391;SDS011;41667;51.922;8.850;2022-12-18T05:55:45;15.02;;;10.18;;
53391;SDS011;41667;51.922;8.850;2022-12-18T05:58:11;12.98;;;7.97;;
53391;SDS011;41667;51.922;8.850;2022-12-18T06:00:38;12.60;;;7.35;;
53391;SDS011;41667;51.922;8.850;2022-12-18T06:03:09;10.52;;;7.25;;
53391;SDS011;41667;51.922;8.850;2022-12-18T06:05:41;14.30;;;8.80;;
53391;SDS011;41667;51.922;8.850;2022-12-18T06:08:07;14.80;;;8.75;;
53391;SDS011;41667;51.922;8.850;2022-12-18T06:10:33;18.00;;;10.05;;
53391;SDS011;41667;51.922;8.850;2022-12-18T06:12:58;18.23;;;9.15;;
53391;SDS011;41667;51.922;8.850;2022-12-18T06:15:23;11.38;;;8.32;;
53391;SDS011;41667;51.922;8.850;2022-12-18T06:17:49;15.43;;;9.13;;
53391;SDS011;41667;51.922;8.850;2022-12-18T06:20:14;10.70;;;7.03;;
53391;SDS011;41667;51.922;8.850;2022-12-18T06:22:39;16.17;;;8.90;;
53391;SDS011;41667;51.922;8.850;2022-12-18T06:25:05;16.43;;;9.37;;
53391;SDS011;41667;51.922;8.850;2022-12-18T06:27:31;14.70;;;11.05;;
53391;SDS011;41667;51.922;8.850;2022-12-18T06:29:56;15.55;;;8.68;;
53391;SDS011;41667;51.922;8.850;2022-12-18T06:32:21;11.67;;;9.00;;
53391;SDS011;41667;51.922;8.850;2022-12-18T06:34:47;13.67;;;8.20;;
53391;SDS011;41667;51.922;8.850;2022-12-18T06:37:12;17.20;;;10.70;;
53391;SDS011;41667;51.922;8.850;2022-12-18T06:39:37;12.17;;;6.07;;
53391;SDS011;41667;51.922;8.850;2022-12-18T06:42:02;16.10;;;9.07;;
53391;SDS011;41667;51.922;8.850;2022-12-18T06:44:28;17.67;;;10.80;;
53391;SDS011;41667;51.922;8.850;2022-12-18T06:46:53;16.53;;;9.57;;
53391;SDS011;41667;51.922;8.850;2022-12-18T06:49:18;16.57;;;10.87;;
53391;SDS011;41667;51.922;8.850;2022-12-18T06:51:43;16.20;;;9.10;;
53391;SDS011;41667;51.922;8.850;2022-12-18T06:54:08;12.83;;;8.00;;
53391;SDS011;41667;51.922;8.850;2022-12-18T06:56:34;13.45;;;8.63;;
53391;SDS011;41667;51.922;8.850;2022-12-18T06:58:59;13.98;;;6.63;;
53391;SDS011;41667;51.922;8.850;2022-12-18T07:01:24;13.90;;;8.55;;
53391;SDS011;41667;51.922;8.850;2022-12-18T07:03:53;15.27;;;9.37;;
53391;SDS011;41667;51.922;8.850;2022-12-18T07:06:19;14.35;;;8.07;;
53391;SDS011;41667;51.922;8.850;2022-12-18T07:08:45;18.73;;;8.93;;
53391;SDS011;41667;51.922;8.850;2022-12-18T07:11:10;17.45;;;7.65;;
53391;SDS011;41667;51.922;8.850;2022-12-18T07:13:36;7.95;;;6.60;;
53391;SDS011;41667;51.922;8.850;2022-12-18T07:16:08;10.88;;;5.97;;
53391;SDS011;41667;51.922;8.850;2022-12-18T07:18:33;14.73;;;8.60;;
53391;SDS011;41667;51.922;8.850;2022-12-18T07:21:01;9.27;;;5.85;;
53391;SDS011;41667;51.922;8.850;2022-12-18T07:23:27;15.13;;;6.65;;
53391;SDS011;41667;51.922;8.850;2022-12-18T07:25:52;14.20;;;7.45;;
53391;SDS011;41667;51.922;8.850;2022-12-18T07:28:17;20.88;;;9.48;;
53391;SDS011;41667;51.922;8.850;2022-12-18T07:30:42;10.50;;;7.63;;
53391;SDS011;41667;51.922;8.850;2022-12-18T07:33:07;10.83;;;4.87;;
53391;SDS011;41667;51.922;8.850;2022-12-18T07:35:33;10.93;;;5.97;;
53391;SDS011;41667;51.922;8.850;2022-12-18T07:38:01;18.05;;;7.22;;
53391;SDS011;41667;51.922;8.850;2022-12-18T07:40:26;10.30;;;8.70;;
53391;SDS011;41667;51.922;8.850;2022-12-18T07:42:51;9.47;;;8.13;;
53391;SDS011;41667;51.922;8.850;2022-12-18T07:45:16;11.20;;;8.47;;
53391;SDS011;41667;51.922;8.850;2022-12-18T07:47:42;14.35;;;7.95;;
53391;SDS011;41667;51.922;8.850;2022-12-18T07:50:08;11.88;;;8.13;;
53391;SDS011;41667;51.922;8.850;2022-12-18T07:52:33;10.27;;;8.85;;
53391;SDS011;41667;51.922;8.850;2022-12-18T07:54:58;13.40;;;8.23;;
53391;SDS011;41667;51.922;8.850;2022-12-18T07:57:23;10.50;;;8.37;;
53391;SDS011;41667;51.922;8.850;2022-12-18T07:59:49;21.53;;;9.57;;
53391;SDS011;41667;51.922;8.850;2022-12-18T08:02:14;11.98;;;7.53;;
53391;SDS011;41667;51.922;8.850;2022-12-18T08:04:39;6.85;;;5.97;;
53391;SDS011;41667;51.922;8.850;2022-12-18T08:07:04;9.57;;;5.50;;
53391;SDS011;41667;51.922;8.850;2022-12-18T08:09:29;12.32;;;8.65;;
53391;SDS011;41667;51.922;8.850;2022-12-18T08:11:55;15.52;;;8.88;;
53391;SDS011;41667;51.922;8.850;2022-12-18T08:14:20;7.40;;;6.03;;
53391;SDS011;41667;51.922;8.850;2022-12-18T08:16:45;5.23;;;4.77;;
53391;SDS011;41667;51.922;8.850;2022-12-18T08:19:10;10.37;;;7.83;;
53391;SDS011;41667;51.922;8.850;2022-12-18T08:21:35;16.17;;;9.57;;
53391;SDS011;41667;51.922;8.850;2022-12-18T08:24:01;9.30;;;6.68;;
53391;SDS011;41667;51.922;8.850;2022-12-18T08:26:28;9.85;;;6.55;;
53391;SDS011;41667;51.922;8.850;2022-12-18T08:28:54;7.18;;;6.07;;
53391;SDS011;41667;51.922;8.850;2022-12-18T08:31:21;4.57;;;4.05;;
53391;SDS011;41667;51.922;8.850;2022-12-18T08:33:50;14.57;;;8.63;;
53391;SDS011;41667;51.922;8.850;2022-12-18T08:36:15;11.15;;;6.82;;
53391;SDS011;41667;51.922;8.850;2022-12-18T08:38:41;15.70;;;8.68;;
53391;SDS011;41667;51.922;8.850;2022-12-18T08:41:07;21.57;;;8.17;;
53391;SDS011;41667;51.922;8.850;2022-12-18T08:43:32;12.93;;;7.20;;
53391;SDS011;41667;51.922;8.850;2022-12-18T08:46:16;13.80;;;7.70;;
53391;SDS011;41667;51.922;8.850;2022-12-18T08:48:42;20.20;;;8.23;;
53391;SDS011;41667;51.922;8.850;2022-12-18T08:51:07;12.45;;;8.07;;
53391;SDS011;41667;51.922;8.850;2022-12-18T08:53:34;10.88;;;7.55;;
53391;SDS011;41667;51.922;8.850;2022-12-18T08:55:59;15.23;;;6.53;;
53391;SDS011;41667;51.922;8.850;2022-12-18T08:58:24;14.35;;;8.30;;
53391;SDS011;41667;51.922;8.850;2022-12-18T09:00:50;11.32;;;7.90;;
53391;SDS011;41667;51.922;8.850;2022-12-18T09:03:16;26.33;;;4.93;;
53391;SDS011;41667;51.922;8.850;2022-12-18T09:05:42;8.13;;;6.13;;
53391;SDS011;41667;51.922;8.850;2022-12-18T09:08:08;9.93;;;6.53;;
53391;SDS011;41667;51.922;8.850;2022-12-18T09:10:33;16.30;;;7.78;;
53391;SDS011;41667;51.922;8.850;2022-12-18T09:12:59;9.63;;;5.88;;
53391;SDS011;41667;51.922;8.850;2022-12-18T09:15:24;9.97;;;7.00;;
53391;SDS011;41667;51.922;8.850;2022-12-18T09:17:49;12.30;;;7.82;;
53391;SDS011;41667;51.922;8.850;2022-12-18T09:20:15;11.45;;;6.88;;
53391;SDS011;41667;51.922;8.850;2022-12-18T09:22:40;14.18;;;7.20;;
53391;SDS011;41667;51.922;8.850;2022-12-18T09:25:05;17.07;;;7.00;;
53391;SDS011;41667;51.922;8.850;2022-12-18T09:27:32;12.75;;;8.25;;
53391;SDS011;41667;51.922;8.850;2022-12-18T09:29:58;13.43;;;6.13;;
53391;SDS011;41667;51.922;8.850;2022-12-18T09:32:23;12.73;;;7.43;;
53391;SDS011;41667;51.922;8.850;2022-12-18T09:34:48;12.90;;;5.13;;
53391;SDS011;41667;51.922;8.850;2022-12-18T09:37:13;11.40;;;4.78;;
53391;SDS011;41667;51.922;8.850;2022-12-18T09:39:38;11.37;;;7.60;;
53391;SDS011;41667;51.922;8.850;2022-12-18T09:42:04;12.93;;;6.63;;
53391;SDS011;41667;51.922;8.850;2022-12-18T09:44:29;11.88;;;5.53;;
53391;SDS011;41667;51.922;8.850;2022-12-18T09:49:44;10.07;;;6.13;;
53391;SDS011;41667;51.922;8.850;2022-12-18T09:54:40;5.67;;;4.40;;
53391;SDS011;41667;51.922;8.850;2022-12-18T09:57:09;10.15;;;5.65;;
53391;SDS011;41667;51.922;8.850;2022-12-18T09:59:37;8.07;;;5.50;;
53391;SDS011;41667;51.922;8.850;2022-12-18T10:02:14;9.90;;;5.40;;
53391;SDS011;41667;51.922;8.850;2022-12-18T10:04:39;8.45;;;5.57;;
53391;SDS011;41667;51.922;8.850;2022-12-18T10:07:08;8.00;;;4.43;;
53391;SDS011;41667;51.922;8.850;2022-12-18T10:09:37;8.55;;;5.93;;
53391;SDS011;41667;51.922;8.850;2022-12-18T10:14:36;14.52;;;7.30;;
53391;SDS011;41667;51.922;8.850;2022-12-18T10:19:40;10.05;;;5.90;;
53391;SDS011;41667;51.922;8.850;2022-12-18T10:27:23;16.93;;;6.10;;
53391;SDS011;41667;51.922;8.850;2022-12-18T10:29:49;11.05;;;6.35;;
53391;SDS011;41667;51.922;8.850;2022-12-18T10:32:16;8.30;;;5.40;;
53391;SDS011;41667;51.922;8.850;2022-12-18T10:34:44;7.63;;;4.78;;
53391;SDS011;41667;51.922;8.850;2022-12-18T10:37:11;14.75;;;7.15;;
53391;SDS011;41667;51.922;8.850;2022-12-18T10:39:39;18.52;;;8.43;;
53391;SDS011;41667;51.922;8.850;2022-12-18T10:42:09;8.00;;;5.53;;
53391;SDS011;41667;51.922;8.850;2022-12-18T10:44:34;5.38;;;4.88;;
53391;SDS011;41667;51.922;8.850;2022-12-18T10:47:03;11.80;;;7.68;;
53391;SDS011;41667;51.922;8.850;2022-12-18T10:49:31;11.82;;;6.65;;
53391;SDS011;41667;51.922;8.850;2022-12-18T10:54:53;10.68;;;6.93;;
53391;SDS011;41667;51.922;8.850;2022-12-18T10:57:33;10.05;;;7.30;;
53391;SDS011;41667;51.922;8.850;2022-12-18T10:59:58;7.88;;;5.65;;
53391;SDS011;41667;51.922;8.850;2022-12-18T11:02:34;11.68;;;5.57;;
53391;SDS011;41667;51.922;8.850;2022-12-18T11:04:59;12.23;;;5.45;;
53391;SDS011;41667;51.922;8.850;2022-12-18T11:07:24;7.85;;;6.18;;
53391;SDS011;41667;51.922;8.850;2022-12-18T11:09:59;9.33;;;5.47;;
53391;SDS011;41667;51.922;8.850;2022-12-18T11:12:25;5.85;;;3.53;;
53391;SDS011;41667;51.922;8.850;2022-12-18T11:14:53;14.07;;;6.15;;
53391;SDS011;41667;51.922;8.850;2022-12-18T11:17:30;11.63;;;5.60;;
53391;SDS011;41667;51.922;8.850;2022-12-18T11:19:56;11.60;;;5.22;;
53391;SDS011;41667;51.922;8.850;2022-12-18T11:22:23;9.07;;;4.97;;
53391;SDS011;41667;51.922;8.850;2022-12-18T11:25:01;7.75;;;4.97;;
53391;SDS011;41667;51.922;8.850;2022-12-18T11:27:27;10.30;;;6.50;;
53391;SDS011;41667;51.922;8.850;2022-12-18T11:30:06;7.63;;;4.78;;
53391;SDS011;41667;51.922;8.850;2022-12-18T11:32:33;10.75;;;5.70;;
53391;SDS011;41667;51.922;8.850;2022-12-18T11:35:10;7.55;;;4.75;;
53391;SDS011;41667;51.922;8.850;2022-12-18T11:37:36;9.63;;;5.40;;
53391;SDS011;41667;51.922;8.850;2022-12-18T11:40:03;6.28;;;3.83;;
53391;SDS011;41667;51.922;8.850;2022-12-18T11:42:51;9.88;;;5.10;;
53391;SDS011;41667;51.922;8.850;2022-12-18T11:45:25;7.07;;;5.25;;
53391;SDS011;41667;51.922;8.850;2022-12-18T11:47:57;7.38;;;5.57;;
53391;SDS011;41667;51.922;8.850;2022-12-18T11:53:09;8.38;;;5.28;;
53391;SDS011;41667;51.922;8.850;2022-12-18T11:55:37;6.03;;;5.18;;
53391;SDS011;41667;51.922;8.850;2022-12-18T11:58:10;6.53;;;5.07;;
53391;SDS011;41667;51.922;8.850;2022-12-18T12:00:40;7.75;;;4.60;;
53391;SDS011;41667;51.922;8.850;2022-12-18T12:03:18;10.27;;;5.13;;
53391;SDS011;41667;51.922;8.850;2022-12-18T12:25:59;8.80;;;5.03;;
53391;SDS011;41667;51.922;8.850;2022-12-18T12:28:35;5.82;;;4.80;;
53391;SDS011;41667;51.922;8.850;2022-12-18T12:33:56;6.03;;;4.43;;
53391;SDS011;41667;51.922;8.850;2022-12-18T12:36:30;7.50;;;5.55;;
53391;SDS011;41667;51.922;8.850;2022-12-18T12:39:03;7.03;;;4.45;;
53391;SDS011;41667;51.922;8.850;2022-12-18T12:41:31;6.18;;;4.63;;
53391;SDS011;41667;51.922;8.850;2022-12-18T12:44:16;8.45;;;4.93;;
53391;SDS011;41667;51.922;8.850;2022-12-18T12:46:43;11.75;;;5.90;;
53391;SDS011;41667;51.922;8.850;2022-12-18T12:49:13;6.07;;;4.78;;
53391;SDS011;41667;51.922;8.850;2022-12-18T12:51:39;7.53;;;5.15;;
53391;SDS011;41667;51.922;8.850;2022-12-18T12:54:06;7.05;;;4.78;;
53391;SDS011;41667;51.922;8.850;2022-12-18T12:56:37;4.57;;;3.95;;
53391;SDS011;41667;51.922;8.850;2022-12-18T13:04:22;11.45;;;4.75;;
53391;SDS011;41667;51.922;8.850;2022-12-18T13:09:32;7.97;;;4.65;;
53391;SDS011;41667;51.922;8.850;2022-12-18T13:12:04;11.50;;;5.07;;
53391;SDS011;41667;51.922;8.850;2022-12-18T13:14:48;7.97;;;4.45;;
53391;SDS011;41667;51.922;8.850;2022-12-18T13:17:14;9.57;;;4.78;;
53391;SDS011;41667;51.922;8.850;2022-12-18T13:19:39;9.02;;;4.65;;
53391;SDS011;41667;51.922;8.850;2022-12-18T13:22:12;10.00;;;5.18;;
53391;SDS011;41667;51.922;8.850;2022-12-18T13:24:52;11.90;;;5.28;;
53391;SDS011;41667;51.922;8.850;2022-12-18T13:30:01;6.75;;;4.50;;
53391;SDS011;41667;51.922;8.850;2022-12-18T13:32:26;9.00;;;5.40;;
53391;SDS011;41667;51.922;8.850;2022-12-18T13:35:52;8.10;;;4.65;;
53391;SDS011;41667;51.922;8.850;2022-12-18T13:37:52;7.03;;;5.13;;
53391;SDS011;41667;51.922;8.850;2022-12-18T13:41:00;9.75;;;4.90;;
53391;SDS011;41667;51.922;8.850;2022-12-18T13:48:55;8.98;;;3.92;;
53391;SDS011;41667;51.922;8.850;2022-12-18T13:51:21;8.82;;;4.15;;
53391;SDS011;41667;51.922;8.850;2022-12-18T13:53:48;9.52;;;4.15;;
53391;SDS011;41667;51.922;8.850;2022-12-18T13:56:15;10.73;;;4.70;;
53391;SDS011;41667;51.922;8.850;2022-12-18T13:58:40;8.15;;;4.55;;
53391;SDS011;41667;51.922;8.850;2022-12-18T14:01:13;6.45;;;4.45;;
53391;SDS011;41667;51.922;8.850;2022-12-18T14:03:40;14.20;;;4.88;;
53391;SDS011;41667;51.922;8.850;2022-12-18T14:06:06;4.80;;;4.23;;
53391;SDS011;41667;51.922;8.850;2022-12-18T14:08:33;7.75;;;4.30;;
53391;SDS011;41667;51.922;8.850;2022-12-18T14:10:58;7.80;;;4.00;;
53391;SDS011;41667;51.922;8.850;2022-12-18T14:13:32;6.00;;;3.25;;
53391;SDS011;41667;51.922;8.850;2022-12-18T14:16:00;4.05;;;3.13;;
53391;SDS011;41667;51.922;8.850;2022-12-18T14:18:34;7.65;;;4.93;;
53391;SDS011;41667;51.922;8.850;2022-12-18T14:21:02;4.70;;;3.97;;
53391;SDS011;41667;51.922;8.850;2022-12-18T14:25:55;7.47;;;4.28;;
53391;SDS011;41667;51.922;8.850;2022-12-18T14:28:21;4.27;;;3.87;;
53391;SDS011;41667;51.922;8.850;2022-12-18T14:30:50;10.70;;;4.22;;
53391;SDS011;41667;51.922;8.850;2022-12-18T14:33:17;5.57;;;3.93;;
53391;SDS011;41667;51.922;8.850;2022-12-18T14:35:55;9.70;;;4.90;;
53391;SDS011;41667;51.922;8.850;2022-12-18T14:40:47;8.93;;;4.32;;
53391;SDS011;41667;51.922;8.850;2022-12-18T14:43:12;8.07;;;4.32;;
53391;SDS011;41667;51.922;8.850;2022-12-18T14:48:46;7.97;;;5.00;;
53391;SDS011;41667;51.922;8.850;2022-12-18T14:51:34;4.78;;;3.35;;
53391;SDS011;41667;51.922;8.850;2022-12-18T14:53:42;5.63;;;4.45;;
53391;SDS011;41667;51.922;8.850;2022-12-18T14:56:15;6.93;;;4.78;;
53391;SDS011;41667;51.922;8.850;2022-12-18T14:58:44;6.35;;;4.63;;
53391;SDS011;41667;51.922;8.850;2022-12-18T15:01:17;7.13;;;5.07;;
53391;SDS011;41667;51.922;8.850;2022-12-18T15:03:43;12.90;;;6.07;;
53391;SDS011;41667;51.922;8.850;2022-12-18T15:06:15;7.65;;;4.68;;
53391;SDS011;41667;51.922;8.850;2022-12-18T15:08:40;6.43;;;5.40;;
53391;SDS011;41667;51.922;8.850;2022-12-18T15:11:23;7.60;;;4.88;;
53391;SDS011;41667;51.922;8.850;2022-12-18T15:13:49;6.05;;;4.93;;
53391;SDS011;41667;51.922;8.850;2022-12-18T15:16:14;9.02;;;4.40;;
53391;SDS011;41667;51.922;8.850;2022-12-18T15:18:41;9.77;;;4.97;;
53391;SDS011;41667;51.922;8.850;2022-12-18T15:21:07;6.75;;;3.70;;
53391;SDS011;41667;51.922;8.850;2022-12-18T15:26:12;8.00;;;5.40;;
53391;SDS011;41667;51.922;8.850;2022-12-18T15:28:46;10.60;;;4.65;;
53391;SDS011;41667;51.922;8.850;2022-12-18T15:33:38;6.13;;;4.97;;
53391;SDS011;41667;51.922;8.850;2022-12-18T15:36:07;10.07;;;5.68;;
53391;SDS011;41667;51.922;8.850;2022-12-18T15:38:33;10.45;;;5.97;;
53391;SDS011;41667;51.922;8.850;2022-12-18T15:40:58;5.05;;;4.05;;
53391;SDS011;41667;51.922;8.850;2022-12-18T15:43:24;9.27;;;4.88;;
53391;SDS011;41667;51.922;8.850;2022-12-18T15:45:59;7.72;;;4.60;;
53391;SDS011;41667;51.922;8.850;2022-12-18T15:48:24;8.30;;;5.43;;
53391;SDS011;41667;51.922;8.850;2022-12-18T15:50:50;7.00;;;4.55;;
53391;SDS011;41667;51.922;8.850;2022-12-18T15:53:15;11.55;;;6.70;;
53391;SDS011;41667;51.922;8.850;2022-12-18T15:55:40;8.25;;;4.43;;
53391;SDS011;41667;51.922;8.850;2022-12-18T15:58:24;5.18;;;3.38;;
53391;SDS011;41667;51.922;8.850;2022-12-18T16:00:49;9.57;;;5.97;;
53391;SDS011;41667;51.922;8.850;2022-12-18T16:03:14;8.07;;;4.63;;
53391;SDS011;41667;51.922;8.850;2022-12-18T16:05:40;11.20;;;6.70;;
53391;SDS011;41667;51.922;8.850;2022-12-18T16:08:05;10.53;;;4.67;;
53391;SDS011;41667;51.922;8.850;2022-12-18T16:10:30;7.13;;;4.22;;